createdAt,value
2023-03-13T00:00:59.688Z,8.23
2023-03-13T00:03:28.236Z,8.19
2023-03-13T00:05:59.689Z,8.18
2023-03-13T00:08:29.909Z,8.16
2023-03-13T00:11:13.883Z,8.17
2023-03-13T00:13:41.853Z,8.16
2023-03-13T00:16:11.678Z,8.17
2023-03-13T00:18:39.641Z,8.16
2023-03-13T00:21:09.147Z,8.16
2023-03-13T00:23:38.942Z,8.18
2023-03-13T00:26:08.454Z,8.15
2023-03-13T00:28:36.983Z,8.16
2023-03-13T00:31:26.050Z,8.13
2023-03-13T00:33:55.753Z,8.13
2023-03-13T00:36:28.992Z,8.13
2023-03-13T00:38:57.208Z,8.12
2023-03-13T00:41:29.555Z,8.14
2023-03-13T00:43:57.527Z,8.14
2023-03-13T00:46:26.972Z,8.18
2023-03-13T00:48:54.777Z,8.19
2023-03-13T00:51:22.849Z,8.18
2023-03-13T00:53:50.637Z,8.12
2023-03-13T00:56:19.024Z,8.11
2023-03-13T00:58:47.595Z,8.10
2023-03-13T01:01:20.892Z,8.07
2023-03-13T01:03:53.346Z,8.06
2023-03-13T01:06:23.069Z,8.05
2023-03-13T01:08:52.372Z,8.03
2023-03-13T01:11:22.187Z,8.01
2023-03-13T01:13:50.160Z,8.01
2023-03-13T01:16:19.874Z,7.98
2023-03-13T01:18:49.270Z,7.96
2023-03-13T01:21:18.304Z,7.97
2023-03-13T01:23:46.145Z,7.97
2023-03-13T01:26:14.055Z,7.94
2023-03-13T01:28:42.020Z,7.95
2023-03-13T01:31:18.735Z,7.96
2023-03-13T01:33:47.381Z,7.96
2023-03-13T01:36:15.274Z,7.95
2023-03-13T01:38:43.312Z,7.93
2023-03-13T01:41:12.607Z,7.94
2023-03-13T01:43:40.473Z,7.95
2023-03-13T01:46:21.156Z,7.97
2023-03-13T01:49:07.374Z,7.97
2023-03-13T01:51:45.740Z,7.97
2023-03-13T01:54:17.219Z,7.94
2023-03-13T01:56:49.947Z,7.99
2023-03-13T01:59:20.295Z,7.97
2023-03-13T02:01:48.582Z,8.00
2023-03-13T02:04:16.948Z,7.97
2023-03-13T02:06:45.482Z,8.02
2023-03-13T02:09:18.763Z,8.08
2023-03-13T02:11:56.168Z,8.13
2023-03-13T02:14:25.095Z,8.11
2023-03-13T02:16:53.121Z,8.10
2023-03-13T02:19:26.470Z,8.13
2023-03-13T02:21:56.317Z,8.08
2023-03-13T02:24:36.323Z,8.10
2023-03-13T02:27:04.703Z,8.11
2023-03-13T02:29:32.592Z,8.11
2023-03-13T02:32:00.790Z,8.10
2023-03-13T02:34:31.628Z,8.10
2023-03-13T02:37:00.449Z,8.11
2023-03-13T02:39:28.318Z,8.14
2023-03-13T02:41:56.144Z,8.13
2023-03-13T02:44:23.973Z,8.14
2023-03-13T02:46:53.553Z,8.11
2023-03-13T02:49:24.696Z,8.13
2023-03-13T02:51:52.862Z,8.15
2023-03-13T02:54:23.828Z,8.15
2023-03-13T02:56:55.596Z,8.20
2023-03-13T02:59:39.554Z,8.21
2023-03-13T03:02:07.377Z,8.19
2023-03-13T03:04:35.227Z,8.21
2023-03-13T03:07:03.031Z,8.22
2023-03-13T03:09:30.939Z,8.21
2023-03-13T03:11:58.790Z,8.19
2023-03-13T03:14:26.666Z,8.22
2023-03-13T03:16:54.499Z,8.17
2023-03-13T03:19:22.430Z,8.17
2023-03-13T03:21:50.804Z,8.14
2023-03-13T03:24:18.624Z,8.18
2023-03-13T03:26:46.551Z,8.18
2023-03-13T03:29:17.097Z,8.16
2023-03-13T03:31:45.018Z,8.15
2023-03-13T03:34:12.828Z,8.16
2023-03-13T03:36:40.719Z,8.17
2023-03-13T03:39:08.581Z,8.14
2023-03-13T03:41:37.070Z,8.13
2023-03-13T03:44:05.622Z,8.12
2023-03-13T03:46:33.626Z,8.12
2023-03-13T03:49:01.459Z,8.11
2023-03-13T03:51:29.331Z,8.10
2023-03-13T03:53:57.208Z,8.11
2023-03-13T03:56:25.163Z,8.11
2023-03-13T03:58:53.049Z,8.10
2023-03-13T04:01:20.928Z,8.12
2023-03-13T04:03:50.101Z,8.08
2023-03-13T04:06:17.925Z,8.11
2023-03-13T04:08:45.809Z,8.12
2023-03-13T04:11:13.617Z,8.16
2023-03-13T04:13:41.522Z,8.17
2023-03-13T04:16:10.116Z,8.19
2023-03-13T04:18:38.102Z,8.16
2023-03-13T04:21:06.521Z,8.16
2023-03-13T04:23:34.399Z,8.14
2023-03-13T04:26:02.248Z,8.16
2023-03-13T04:28:30.104Z,8.17
2023-03-13T04:31:02.583Z,8.12
2023-03-13T04:33:30.521Z,8.13
2023-03-13T04:36:01.867Z,8.14
2023-03-13T04:38:29.735Z,8.16
2023-03-13T04:40:57.759Z,8.17
2023-03-13T04:43:25.558Z,8.21
2023-03-13T04:45:56.088Z,8.24
2023-03-13T04:48:24.110Z,8.26
2023-03-13T04:50:52.213Z,8.27
2023-03-13T04:53:20.570Z,8.31
2023-03-13T04:55:48.758Z,8.45
2023-03-13T04:58:16.640Z,8.57
2023-03-13T05:00:44.509Z,8.75
2023-03-13T05:03:12.628Z,8.88
2023-03-13T05:05:40.521Z,9.04
2023-03-13T05:08:09.923Z,9.16
2023-03-13T05:10:37.850Z,9.22
2023-03-13T05:13:05.793Z,9.30
2023-03-13T05:15:33.657Z,9.36
2023-03-13T05:18:01.594Z,9.47
2023-03-13T05:20:29.569Z,9.54
2023-03-13T05:22:57.635Z,9.58
2023-03-13T05:25:25.458Z,9.65
2023-03-13T05:27:53.247Z,9.69
2023-03-13T05:30:21.200Z,9.72
2023-03-13T05:32:49.095Z,9.73
2023-03-13T05:35:17.037Z,9.75
2023-03-13T05:37:45.058Z,9.78
2023-03-13T05:40:13.522Z,9.79
2023-03-13T05:42:41.547Z,9.80
2023-03-13T05:45:10.599Z,9.83
2023-03-13T05:47:39.887Z,9.84
2023-03-13T05:50:08.636Z,9.84
2023-03-13T05:52:36.430Z,9.85
2023-03-13T05:55:04.260Z,9.82
2023-03-13T05:57:32.034Z,9.83
2023-03-13T06:00:00.766Z,9.81
2023-03-13T06:02:28.606Z,9.82
2023-03-13T06:04:56.675Z,9.82
2023-03-13T06:07:24.511Z,9.78
2023-03-13T06:09:52.328Z,9.81
2023-03-13T06:12:20.178Z,9.82
2023-03-13T06:14:48.027Z,9.82
2023-03-13T06:17:15.922Z,9.82
2023-03-13T06:19:44.135Z,9.82
2023-03-13T06:22:12.002Z,9.85
2023-03-13T06:24:39.937Z,9.89
2023-03-13T06:27:08.785Z,9.91
2023-03-13T06:29:36.634Z,9.92
2023-03-13T06:32:04.673Z,9.93
2023-03-13T06:34:32.509Z,9.94
2023-03-13T06:37:01.672Z,9.96
2023-03-13T06:39:29.722Z,9.98
2023-03-13T06:41:57.575Z,9.98
2023-03-13T06:44:25.555Z,9.99
2023-03-13T06:46:53.537Z,10.02
2023-03-13T06:49:21.505Z,10.04
2023-03-13T06:51:49.356Z,10.03
2023-03-13T06:54:17.230Z,10.04
2023-03-13T06:56:45.094Z,10.03
2023-03-13T06:59:12.917Z,10.04
2023-03-13T07:01:40.752Z,10.06
2023-03-13T07:04:08.679Z,10.06
2023-03-13T07:06:36.538Z,10.08
2023-03-13T07:09:06.257Z,10.10
2023-03-13T07:11:34.060Z,10.13
2023-03-13T07:14:15.884Z,10.17
2023-03-13T07:16:45.158Z,10.22
2023-03-13T07:19:13.253Z,10.24
2023-03-13T07:21:41.071Z,10.30
2023-03-13T07:24:09.058Z,10.30
2023-03-13T07:26:37.007Z,10.12
2023-03-13T07:29:05.285Z,10.00
2023-03-13T07:31:35.155Z,9.86
2023-03-13T07:34:03.050Z,9.84
2023-03-13T07:36:32.093Z,9.87
2023-03-13T07:39:00.043Z,10.20
2023-03-13T07:41:27.971Z,10.21
2023-03-13T07:43:55.738Z,10.14
2023-03-13T07:46:23.910Z,10.11
2023-03-13T07:48:52.462Z,10.03
2023-03-13T07:51:33.424Z,10.00
2023-03-13T07:54:05.097Z,10.06
2023-03-13T07:56:34.368Z,10.11
2023-03-13T07:59:02.558Z,10.19
2023-03-13T08:01:31.356Z,10.28
2023-03-13T08:04:02.329Z,10.37
2023-03-13T08:06:33.926Z,10.41
2023-03-13T08:09:08.593Z,10.46
2023-03-13T08:11:36.633Z,10.48
2023-03-13T08:14:04.613Z,10.55
2023-03-13T08:16:35.270Z,10.63
2023-03-13T08:19:15.798Z,10.71
2023-03-13T08:21:43.989Z,10.88
2023-03-13T08:24:12.578Z,11.09
2023-03-13T08:26:42.358Z,11.27
2023-03-13T08:29:15.174Z,11.61
2023-03-13T08:31:50.538Z,12.08
2023-03-13T08:34:18.716Z,12.39
2023-03-13T08:36:46.692Z,12.62
2023-03-13T08:39:19.118Z,12.72
2023-03-13T08:41:49.450Z,13.00
2023-03-13T08:44:21.672Z,13.27
2023-03-13T08:46:50.406Z,13.49
2023-03-13T08:49:18.839Z,13.56
2023-03-13T08:51:46.647Z,13.60
2023-03-13T08:54:14.551Z,13.67
2023-03-13T08:56:44.745Z,13.70
2023-03-13T08:59:12.670Z,13.77
2023-03-13T09:01:40.588Z,13.83
2023-03-13T09:04:08.651Z,13.91
2023-03-13T09:06:37.321Z,13.94
2023-03-13T09:09:05.502Z,13.96
2023-03-13T09:11:33.298Z,13.98
2023-03-13T09:14:01.194Z,14.01
2023-03-13T09:16:30.252Z,14.09
2023-03-13T09:18:58.436Z,14.18
2023-03-13T09:21:28.225Z,14.55
2023-03-13T09:23:56.080Z,14.96
2023-03-13T09:26:24.288Z,15.28
2023-03-13T09:28:53.022Z,15.65
2023-03-13T09:31:25.205Z,16.04
2023-03-13T09:33:53.156Z,16.27
2023-03-13T09:36:22.569Z,16.47
2023-03-13T09:38:51.946Z,16.53
2023-03-13T09:41:40.681Z,16.61
2023-03-13T09:44:15.927Z,16.82
2023-03-13T09:46:55.085Z,16.85
2023-03-13T09:49:22.965Z,16.83
2023-03-13T09:51:54.675Z,17.06
2023-03-13T09:54:37.672Z,17.19
2023-03-13T09:57:12.717Z,17.49
2023-03-13T09:59:49.397Z,17.67
2023-03-13T10:02:37.926Z,17.92
2023-03-13T10:05:14.693Z,18.04
2023-03-13T10:07:42.627Z,18.23
2023-03-13T10:10:22.704Z,18.16
2023-03-13T10:12:51.961Z,18.30
2023-03-13T10:15:59.449Z,18.52
2023-03-13T10:18:27.573Z,18.78
2023-03-13T10:20:58.581Z,18.86
2023-03-13T10:23:47.856Z,18.73
2023-03-13T10:26:33.216Z,18.85
2023-03-13T10:29:06.779Z,19.03
2023-03-13T10:31:35.299Z,19.17
2023-03-13T10:34:13.668Z,19.24
2023-03-13T10:36:48.964Z,18.99
2023-03-13T10:39:23.658Z,18.79
2023-03-13T10:41:51.593Z,18.66
2023-03-13T10:44:30.932Z,18.78
2023-03-13T10:47:01.560Z,18.97
2023-03-13T10:49:32.523Z,18.86
2023-03-13T10:52:04.788Z,18.93
2023-03-13T10:54:36.395Z,19.02
2023-03-13T10:57:19.518Z,19.13
2023-03-13T10:59:48.842Z,19.34
2023-03-13T11:02:37.197Z,19.48
2023-03-13T11:05:25.358Z,19.29
2023-03-13T11:07:53.983Z,19.63
2023-03-13T11:10:25.739Z,19.87
2023-03-13T11:12:55.729Z,19.98
2023-03-13T11:15:52.760Z,20.11
2023-03-13T11:18:54.764Z,20.19
2023-03-13T11:21:26.188Z,20.15
2023-03-13T11:24:03.088Z,20.50
2023-03-13T11:27:04.335Z,20.89
2023-03-13T11:30:00.877Z,21.01
2023-03-13T11:32:33.255Z,21.31
2023-03-13T11:35:02.085Z,21.62
2023-03-13T11:37:30.304Z,21.71
2023-03-13T11:40:22.442Z,21.75
2023-03-13T11:43:25.976Z,21.73
2023-03-13T11:46:09.477Z,21.80
2023-03-13T11:48:52.954Z,21.63
2023-03-13T11:51:39.573Z,21.63
2023-03-13T11:54:41.785Z,21.74
2023-03-13T11:57:16.040Z,21.47
2023-03-13T12:00:15.572Z,21.61
2023-03-13T12:02:52.861Z,21.60
2023-03-13T12:05:21.604Z,21.50
2023-03-13T12:07:54.016Z,21.36
2023-03-13T12:10:29.252Z,21.42
2023-03-13T12:12:58.504Z,21.50
2023-03-13T12:15:36.002Z,21.69
2023-03-13T12:18:19.046Z,21.68
2023-03-13T12:21:16.696Z,21.69
2023-03-13T12:23:57.361Z,21.59
2023-03-13T12:26:52.784Z,21.67
2023-03-13T12:29:56.518Z,21.71
2023-03-13T12:32:37.810Z,21.87
2023-03-13T12:35:10.347Z,21.80
2023-03-13T12:38:20.933Z,21.79
2023-03-13T12:40:51.112Z,21.91
2023-03-13T12:43:24.857Z,22.24
2023-03-13T12:45:58.918Z,22.42
2023-03-13T12:48:49.081Z,22.23
2023-03-13T12:51:59.303Z,22.44
2023-03-13T12:54:55.070Z,22.41
2023-03-13T12:57:44.297Z,22.65
2023-03-13T13:00:24.957Z,22.77
2023-03-13T13:03:25.037Z,22.97
2023-03-13T13:06:06.406Z,23.27
2023-03-13T13:08:37.621Z,23.18
2023-03-13T13:11:36.864Z,22.94
2023-03-13T13:14:13.268Z,22.92
2023-03-13T13:16:43.608Z,22.84
2023-03-13T13:19:26.704Z,23.02
2023-03-13T13:22:32.422Z,23.32
2023-03-13T13:25:01.193Z,23.53
2023-03-13T13:27:37.884Z,23.79
2023-03-13T13:30:06.516Z,23.55
2023-03-13T13:32:40.384Z,23.65
2023-03-13T13:35:14.324Z,23.52
2023-03-13T13:37:42.325Z,23.20
2023-03-13T13:40:30.744Z,23.15
2023-03-13T13:43:00.076Z,23.08
2023-03-13T13:45:36.795Z,23.22
2023-03-13T13:48:18.110Z,23.27
2023-03-13T13:51:15.297Z,23.38
2023-03-13T13:53:47.859Z,23.72
2023-03-13T13:56:42.304Z,23.56
2023-03-13T13:59:22.294Z,23.42
2023-03-13T14:01:52.933Z,23.43
2023-03-13T14:04:30.976Z,23.43
2023-03-13T14:07:00.387Z,23.20
2023-03-13T14:09:59.213Z,22.97
2023-03-13T14:12:31.352Z,23.18
2023-03-13T14:15:15.181Z,23.37
2023-03-13T14:17:52.481Z,23.44
2023-03-13T14:20:40.968Z,23.57
2023-03-13T14:23:10.639Z,23.26
2023-03-13T14:25:49.586Z,22.69
2023-03-13T14:28:28.244Z,21.92
2023-03-13T14:30:58.129Z,21.36
2023-03-13T14:33:28.037Z,20.93
2023-03-13T14:35:56.680Z,20.43
2023-03-13T14:38:27.174Z,20.08
2023-03-13T14:40:56.587Z,20.03
2023-03-13T14:43:36.877Z,19.77
2023-03-13T14:46:33.564Z,19.79
2023-03-13T14:49:17.134Z,19.81
2023-03-13T14:51:45.136Z,19.51
2023-03-13T14:54:29.692Z,19.40
2023-03-13T14:57:15.133Z,19.27
2023-03-13T14:59:44.457Z,19.14
2023-03-13T15:02:35.384Z,19.13
2023-03-13T15:05:08.661Z,19.09
2023-03-13T15:07:44.120Z,18.88
2023-03-13T15:10:32.797Z,18.88
2023-03-13T15:13:00.765Z,18.62
2023-03-13T15:15:28.759Z,18.50
2023-03-13T15:17:56.678Z,18.42
2023-03-13T15:20:24.805Z,18.26
2023-03-13T15:22:52.782Z,18.04
2023-03-13T15:25:22.003Z,17.98
2023-03-13T15:27:50.363Z,17.94
2023-03-13T15:30:19.506Z,17.87
2023-03-13T15:32:48.105Z,17.84
2023-03-13T15:35:33.093Z,17.82
2023-03-13T15:38:02.213Z,17.79
2023-03-13T15:40:33.540Z,17.71
2023-03-13T15:43:01.566Z,17.69
2023-03-13T15:45:30.817Z,17.61
2023-03-13T15:47:58.724Z,17.51
2023-03-13T15:50:31.937Z,17.44
2023-03-13T15:53:02.000Z,17.34
2023-03-13T15:55:30.120Z,17.27
2023-03-13T15:57:58.096Z,17.20
2023-03-13T16:00:27.183Z,17.15
2023-03-13T16:02:55.110Z,17.05
2023-03-13T16:05:23.050Z,16.81
2023-03-13T16:07:50.873Z,16.66
2023-03-13T16:10:25.605Z,16.55
2023-03-13T16:12:57.024Z,16.50
2023-03-13T16:15:24.865Z,16.45
2023-03-13T16:17:52.992Z,16.40
2023-03-13T16:20:22.763Z,16.34
2023-03-13T16:22:53.344Z,16.27
2023-03-13T16:25:21.459Z,16.20
2023-03-13T16:27:49.677Z,16.14
2023-03-13T16:30:25.884Z,16.04
2023-03-13T16:32:54.088Z,16.01
2023-03-13T16:35:22.191Z,15.91
2023-03-13T16:37:51.962Z,15.85
2023-03-13T16:40:26.238Z,15.83
2023-03-13T16:42:54.236Z,15.82
2023-03-13T16:45:22.368Z,15.79
2023-03-13T16:47:50.293Z,15.78
2023-03-13T16:50:33.879Z,15.70
2023-03-13T16:53:01.834Z,15.65
2023-03-13T16:55:29.734Z,15.61
2023-03-13T16:57:58.639Z,15.58
2023-03-13T17:00:27.823Z,15.55
2023-03-13T17:02:56.337Z,15.52
2023-03-13T17:05:24.198Z,15.48
2023-03-13T17:07:52.816Z,15.42
2023-03-13T17:10:29.790Z,15.40
2023-03-13T17:12:57.620Z,15.37
2023-03-13T17:15:26.120Z,15.29
2023-03-13T17:17:54.320Z,15.29
2023-03-13T17:20:27.163Z,15.30
2023-03-13T17:22:57.221Z,15.31
2023-03-13T17:25:26.013Z,15.22
2023-03-13T17:27:54.072Z,15.13
2023-03-13T17:30:27.549Z,15.05
2023-03-13T17:32:55.883Z,15.04
2023-03-13T17:35:25.580Z,15.03
2023-03-13T17:37:53.775Z,14.99
2023-03-13T17:40:29.279Z,14.95
2023-03-13T17:42:58.206Z,14.90
2023-03-13T17:45:26.370Z,14.78
2023-03-13T17:47:55.509Z,14.77
2023-03-13T17:50:25.492Z,14.77
2023-03-13T17:52:53.340Z,14.66
2023-03-13T17:55:21.268Z,14.61
2023-03-13T17:57:50.166Z,14.62
2023-03-13T18:00:21.434Z,14.63
2023-03-13T18:02:49.312Z,14.63
2023-03-13T18:05:17.326Z,14.58
2023-03-13T18:07:45.572Z,14.52
2023-03-13T18:10:24.529Z,14.42
2023-03-13T18:12:52.783Z,14.35
2023-03-13T18:15:25.115Z,14.29
2023-03-13T18:17:53.115Z,14.24
2023-03-13T18:20:23.212Z,14.21
2023-03-13T18:22:51.106Z,14.11
2023-03-13T18:25:18.953Z,14.03
2023-03-13T18:27:47.092Z,13.98
2023-03-13T18:30:19.755Z,13.97
2023-03-13T18:32:48.035Z,13.91
2023-03-13T18:35:16.265Z,13.86
2023-03-13T18:37:48.026Z,13.76
2023-03-13T18:40:20.994Z,13.70
2023-03-13T18:42:49.122Z,13.68
2023-03-13T18:45:18.466Z,13.67
2023-03-13T18:47:46.523Z,13.59
2023-03-13T18:50:47.081Z,13.55
2023-03-13T18:53:15.058Z,13.50
2023-03-13T18:55:42.964Z,13.45
2023-03-13T18:58:12.059Z,13.43
2023-03-13T19:00:40.239Z,13.32
2023-03-13T19:03:08.152Z,13.38
2023-03-13T19:05:36.236Z,13.38
2023-03-13T19:08:04.261Z,13.32
2023-03-13T19:10:32.728Z,13.34
2023-03-13T19:13:00.866Z,13.26
2023-03-13T19:15:33.217Z,13.20
2023-03-13T19:18:03.548Z,13.20
2023-03-13T19:20:32.087Z,13.14
2023-03-13T19:23:01.773Z,13.08
2023-03-13T19:25:30.562Z,13.08
2023-03-13T19:27:58.465Z,13.04
2023-03-13T19:30:27.372Z,12.97
2023-03-13T19:32:55.518Z,12.98
2023-03-13T19:35:23.536Z,13.00
2023-03-13T19:37:51.521Z,13.01
2023-03-13T19:40:20.671Z,12.98
2023-03-13T19:42:50.193Z,12.98
2023-03-13T19:45:22.912Z,12.94
2023-03-13T19:47:50.826Z,12.91
2023-03-13T19:50:23.718Z,12.88
2023-03-13T19:52:51.578Z,12.85
2023-03-13T19:55:19.506Z,12.81
2023-03-13T19:57:47.651Z,12.75
2023-03-13T20:00:31.220Z,12.72
2023-03-13T20:02:59.203Z,12.69
2023-03-13T20:05:29.846Z,12.68
2023-03-13T20:07:58.562Z,12.68
2023-03-13T20:10:26.716Z,12.65
2023-03-13T20:12:55.678Z,12.65
2023-03-13T20:15:23.651Z,12.67
2023-03-13T20:17:51.527Z,12.63
2023-03-13T20:20:19.546Z,12.64
2023-03-13T20:22:47.580Z,12.64
2023-03-13T20:25:17.056Z,12.66
2023-03-13T20:27:44.836Z,12.64
2023-03-13T20:30:13.097Z,12.63
2023-03-13T20:32:56.742Z,12.62
2023-03-13T20:35:26.926Z,12.61
2023-03-13T20:37:55.870Z,12.63
2023-03-13T20:40:24.214Z,12.63
2023-03-13T20:42:52.131Z,12.63
2023-03-13T20:45:20.083Z,12.61
2023-03-13T20:47:48.020Z,12.59
2023-03-13T20:50:16.996Z,12.56
2023-03-13T20:52:45.913Z,12.59
2023-03-13T20:55:13.829Z,12.72
2023-03-13T20:57:41.816Z,12.84
2023-03-13T21:00:12.768Z,12.99
2023-03-13T21:02:41.053Z,13.08
2023-03-13T21:05:09.514Z,13.14
2023-03-13T21:07:37.982Z,13.19
2023-03-13T21:10:06.474Z,13.20
2023-03-13T21:12:35.019Z,13.24
2023-03-13T21:15:06.570Z,13.27
2023-03-13T21:17:34.876Z,13.29
2023-03-13T21:20:03.304Z,13.28
2023-03-13T21:22:32.288Z,13.26
2023-03-13T21:25:00.479Z,13.22
2023-03-13T21:27:28.320Z,13.20
2023-03-13T21:29:56.190Z,13.18
2023-03-13T21:32:24.474Z,13.14
2023-03-13T21:34:52.482Z,13.12
2023-03-13T21:37:20.569Z,13.08
2023-03-13T21:39:52.077Z,13.07
2023-03-13T21:42:21.033Z,13.07
2023-03-13T21:44:51.646Z,13.05
2023-03-13T21:47:25.399Z,13.01
2023-03-13T21:49:53.889Z,13.02
2023-03-13T21:52:22.445Z,13.00
2023-03-13T21:54:50.522Z,12.98
2023-03-13T21:57:18.347Z,12.93
2023-03-13T21:59:46.188Z,12.91
2023-03-13T22:02:20.909Z,12.85
2023-03-13T22:04:48.922Z,12.82
2023-03-13T22:07:16.704Z,12.81
2023-03-13T22:09:44.603Z,12.78
2023-03-13T22:12:12.647Z,12.77
2023-03-13T22:14:40.508Z,12.76
2023-03-13T22:17:18.139Z,12.74
2023-03-13T22:19:48.799Z,12.73
2023-03-13T22:22:17.340Z,12.70
2023-03-13T22:24:45.350Z,12.68
2023-03-13T22:27:14.085Z,12.67
2023-03-13T22:29:49.489Z,12.64
2023-03-13T22:32:18.160Z,12.61
2023-03-13T22:34:48.374Z,12.51
2023-03-13T22:37:16.303Z,12.46
2023-03-13T22:39:44.362Z,12.36
2023-03-13T22:42:12.245Z,12.27
2023-03-13T22:44:40.100Z,12.16
2023-03-13T22:47:07.988Z,12.05
2023-03-13T22:49:35.813Z,11.92
2023-03-13T22:52:03.866Z,11.73
2023-03-13T22:54:31.790Z,11.63
2023-03-13T22:57:07.155Z,11.59
2023-03-13T22:59:35.058Z,11.53
2023-03-13T23:02:02.846Z,11.48
2023-03-13T23:04:30.692Z,11.40
2023-03-13T23:06:58.603Z,11.32
2023-03-13T23:09:26.363Z,11.18
2023-03-13T23:11:54.183Z,11.10
2023-03-13T23:14:22.011Z,11.13
2023-03-13T23:16:50.096Z,11.11
2023-03-13T23:19:17.964Z,11.11
2023-03-13T23:21:45.912Z,11.08
2023-03-13T23:24:18.457Z,11.04
2023-03-13T23:26:46.453Z,11.00
2023-03-13T23:29:15.325Z,10.97
2023-03-13T23:31:43.455Z,10.86
2023-03-13T23:34:11.297Z,10.79
2023-03-13T23:36:39.814Z,10.73
2023-03-13T23:39:07.873Z,10.64
2023-03-13T23:41:35.694Z,10.50
2023-03-13T23:44:03.543Z,10.39
2023-03-13T23:46:31.572Z,10.29
2023-03-13T23:48:59.704Z,10.24
2023-03-13T23:51:27.857Z,10.12
2023-03-13T23:53:55.736Z,10.07
2023-03-13T23:56:52.136Z,10.03
2023-03-13T23:59:20.203Z,9.92
